This is the latest recevied weather packets stored in our database for station/object K9MWD. If no packets are shown the sender has not sent any weather packets the latest 10 day(s).
| Time | Temp. | Humidity | Pressure | Rain* | Wind** | Luminosity | Snow |
|---|---|---|---|---|---|---|---|
| 1777828118 | 25° C | 44% | 1021.8 hPa | 0 mm | - | 881 W/m² | - |
| 1777827814 | 24.44° C | 47% | 1021.8 hPa | 0 mm | - | 874 W/m² | - |
| 1777827511 | 24.44° C | 47% | 1021.8 hPa | 0 mm | - | 864 W/m² | - |
| 1777827209 | 23.89° C | 49% | 1021.8 hPa | 0 mm | - | 857 W/m² | - |
| 1777826905 | 24.44° C | 46% | 1022.1 hPa | 0 mm | - | 848 W/m² | - |
| 1777826603 | 23.89° C | 47% | 1022.1 hPa | 0 mm | - | 839 W/m² | - |
| 1777826298 | 23.89° C | 47% | 1022.1 hPa | 0 mm | - | 830 W/m² | - |
| 1777825996 | 23.89° C | 47% | 1022 hPa | 0 mm | - | 822 W/m² | - |
| 1777825693 | 23.89° C | 49% | 1022.1 hPa | 0 mm | - | 811 W/m² | - |
| 1777825391 | 23.89° C | 48% | 1022.2 hPa | 0 mm | - | 799 W/m² | - |
| 1777825088 | 23.33° C | 49% | 1022.2 hPa | 0 mm | - | 791 W/m² | - |
| 1777824783 | 23.33° C | 49% | 1022.2 hPa | 0 mm | - | 779 W/m² | - |
| 1777824481 | 23.33° C | 49% | 1022.3 hPa | 0 mm | - | 767 W/m² | - |
| 1777824176 | 23.33° C | 50% | 1022.1 hPa | 0 mm | - | 756 W/m² | - |
| 1777823872 | 22.78° C | 50% | 1022 hPa | 0 mm | - | 743 W/m² | - |
| 1777823570 | 22.78° C | 50% | 1022.3 hPa | 0 mm | - | 728 W/m² | - |
| 1777823267 | 22.78° C | 50% | 1022.2 hPa | 0 mm | - | 717 W/m² | - |
| 1777822965 | 22.78° C | 48% | 1022.2 hPa | 0 mm | - | 704 W/m² | - |
| 1777822663 | 23.33° C | 48% | 1022.3 hPa | 0 mm | - | 690 W/m² | - |
| 1777822360 | 22.78° C | 49% | 1022.2 hPa | 0 mm | - | 677 W/m² | - |
| 1777822058 | 22.78° C | 49% | 1022.3 hPa | 0 mm | - | 662 W/m² | - |
| 1777821756 | 22.78° C | 49% | 1022.2 hPa | 0 mm | - | 647 W/m² | - |
| 1777821452 | 22.22° C | 50% | 1022.2 hPa | 0 mm | - | 634 W/m² | - |
| 1777821150 | 22.22° C | 52% | 1022.1 hPa | 0 mm | - | 617 W/m² | - |
| 1777820847 | 22.22° C | 51% | 1021.9 hPa | 0 mm | - | 603 W/m² | - |
* Rain latest hour (hover to see other rain measurements)
** Current wind speed in m/s (hover to see current wind gust speed)